createdAt,value
2023-02-16T00:02:09.995Z,101643.81
2023-02-16T00:04:36.981Z,101648.72
2023-02-16T00:07:03.545Z,101637.38
2023-02-16T00:09:30.184Z,101638.88
2023-02-16T00:12:16.629Z,101645.84
2023-02-16T00:14:43.234Z,101619.06
2023-02-16T00:17:11.154Z,101625.78
2023-02-16T00:19:40.439Z,101644.19
2023-02-16T00:22:08.325Z,101645.34
2023-02-16T00:24:35.277Z,101655.25
2023-02-16T00:27:01.982Z,101650.97
2023-02-16T00:29:34.765Z,101651.13
2023-02-16T00:32:03.637Z,101651.72
2023-02-16T00:34:40.150Z,101653.00
2023-02-16T00:37:09.650Z,101646.13
2023-02-16T00:39:37.085Z,101645.53
2023-02-16T00:42:19.600Z,101650.81
2023-02-16T00:44:49.033Z,101654.34
2023-02-16T00:47:20.466Z,101648.38
2023-02-16T00:49:49.419Z,101653.16
2023-02-16T00:52:29.487Z,101649.53
2023-02-16T00:54:57.366Z,101651.03
2023-02-16T00:57:25.806Z,101641.88
2023-02-16T01:00:00.555Z,101639.53
2023-02-16T01:02:27.821Z,101645.25
2023-02-16T01:04:55.548Z,101645.56
2023-02-16T01:07:41.373Z,101652.84
2023-02-16T01:10:27.037Z,101654.19
2023-02-16T01:12:53.675Z,101658.66
2023-02-16T01:15:23.270Z,101656.22
2023-02-16T01:17:51.537Z,101647.72
2023-02-16T01:20:21.313Z,101635.16
2023-02-16T01:22:48.251Z,101642.84
2023-02-16T01:25:15.873Z,101650.19
2023-02-16T01:27:43.465Z,101653.13
2023-02-16T01:30:16.686Z,101648.81
2023-02-16T01:32:51.217Z,101645.88
2023-02-16T01:35:19.772Z,101658.47
2023-02-16T01:37:46.439Z,101644.97
2023-02-16T01:40:26.584Z,101647.09
2023-02-16T01:42:58.611Z,101644.16
2023-02-16T01:45:38.852Z,101639.03
2023-02-16T01:48:13.578Z,101643.41
2023-02-16T01:50:53.498Z,101642.84
2023-02-16T01:53:26.969Z,101655.50
2023-02-16T01:55:58.779Z,101646.75
2023-02-16T01:58:35.543Z,101635.19
2023-02-16T02:01:02.417Z,101632.28
2023-02-16T02:03:53.671Z,101633.22
2023-02-16T02:06:33.738Z,101624.69
2023-02-16T02:09:07.777Z,101616.13
2023-02-16T02:12:00.580Z,101608.28
2023-02-16T02:14:33.211Z,101600.41
2023-02-16T02:17:08.145Z,101600.16
2023-02-16T02:19:55.908Z,101603.78
2023-02-16T02:22:52.276Z,101609.25
2023-02-16T02:25:40.734Z,101612.25
2023-02-16T02:28:17.423Z,101609.19
2023-02-16T02:30:51.806Z,101609.72
2023-02-16T02:33:28.505Z,101612.09
2023-02-16T02:36:21.962Z,101601.44
2023-02-16T02:39:19.842Z,101598.91
2023-02-16T02:42:06.311Z,101601.28
2023-02-16T02:44:46.756Z,101606.28
2023-02-16T02:47:13.666Z,101602.84
2023-02-16T02:49:49.539Z,101601.34
2023-02-16T02:52:16.350Z,101603.06
2023-02-16T02:55:02.252Z,101608.88
2023-02-16T02:58:03.007Z,101606.00
2023-02-16T03:00:41.918Z,101607.91
2023-02-16T03:03:34.110Z,101615.69
2023-02-16T03:06:13.403Z,101609.56
2023-02-16T03:08:43.249Z,101604.41
2023-02-16T03:11:34.557Z,101603.53
2023-02-16T03:14:05.912Z,101595.44
2023-02-16T03:16:44.665Z,101600.91
2023-02-16T03:19:33.086Z,101598.59
2023-02-16T03:22:19.267Z,101595.59
2023-02-16T03:25:05.029Z,101597.16
2023-02-16T03:27:59.738Z,101605.41
2023-02-16T03:30:27.991Z,101611.72
2023-02-16T03:32:54.901Z,101617.50
2023-02-16T03:35:21.940Z,101615.47
2023-02-16T03:37:48.692Z,101610.03
2023-02-16T03:40:28.940Z,101608.53
2023-02-16T03:42:57.874Z,101608.34
2023-02-16T03:45:25.456Z,101606.84
2023-02-16T03:47:52.740Z,101613.91
2023-02-16T03:50:19.493Z,101609.13
2023-02-16T03:52:46.094Z,101605.13
2023-02-16T03:55:12.796Z,101608.44
2023-02-16T03:57:39.398Z,101610.25
2023-02-16T04:00:06.946Z,101608.00
2023-02-16T04:02:40.042Z,101601.41
2023-02-16T04:05:06.944Z,101597.25
2023-02-16T04:07:33.650Z,101602.03
2023-02-16T04:10:00.262Z,101609.03
2023-02-16T04:12:39.039Z,101610.03
2023-02-16T04:15:18.010Z,101617.75
2023-02-16T04:17:45.033Z,101616.53
2023-02-16T04:20:16.155Z,101608.28
2023-02-16T04:22:43.853Z,101611.00
2023-02-16T04:25:11.371Z,101610.03
2023-02-16T04:27:40.628Z,101615.16
2023-02-16T04:30:09.308Z,101616.00
2023-02-16T04:32:35.911Z,101615.78
2023-02-16T04:35:02.567Z,101606.63
2023-02-16T04:37:31.081Z,101607.94
2023-02-16T04:39:57.727Z,101608.59
2023-02-16T04:42:24.514Z,101613.44
2023-02-16T04:44:51.288Z,101611.16
2023-02-16T04:47:18.133Z,101608.91
2023-02-16T04:49:44.818Z,101607.97
2023-02-16T04:52:13.298Z,101611.94
2023-02-16T04:54:40.254Z,101604.56
2023-02-16T04:57:06.911Z,101607.31
2023-02-16T04:59:33.493Z,101608.06
2023-02-16T05:02:00.180Z,101606.38
2023-02-16T05:04:26.794Z,101610.25
2023-02-16T05:06:53.511Z,101607.53
2023-02-16T05:09:20.799Z,101597.69
2023-02-16T05:12:05.788Z,101608.56
2023-02-16T05:14:47.211Z,101600.03
2023-02-16T05:17:19.532Z,101600.16
2023-02-16T05:19:48.931Z,101603.28
2023-02-16T05:22:16.063Z,101599.72
2023-02-16T05:24:43.767Z,101598.22
2023-02-16T05:27:16.847Z,101600.06
2023-02-16T05:29:43.664Z,101607.00
2023-02-16T05:32:10.946Z,101607.91
2023-02-16T05:34:37.770Z,101608.50
2023-02-16T05:37:05.084Z,101606.38
2023-02-16T05:39:31.918Z,101614.06
2023-02-16T05:41:58.597Z,101606.84
2023-02-16T05:44:25.244Z,101610.41
2023-02-16T05:46:51.888Z,101611.53
2023-02-16T05:49:18.721Z,101619.25
2023-02-16T05:51:45.711Z,101612.72
2023-02-16T05:54:17.333Z,101608.66
2023-02-16T05:56:46.230Z,101615.50
2023-02-16T05:59:13.532Z,101617.44
2023-02-16T06:01:41.018Z,101622.88
2023-02-16T06:04:13.127Z,101617.03
2023-02-16T06:06:40.452Z,101623.00
2023-02-16T06:09:08.869Z,101625.84
2023-02-16T06:11:35.873Z,101625.81
2023-02-16T06:14:08.703Z,101623.56
2023-02-16T06:16:37.267Z,101624.78
2023-02-16T06:19:04.182Z,101627.38
2023-02-16T06:21:31.002Z,101617.34
2023-02-16T06:23:57.892Z,101617.19
2023-02-16T06:26:25.172Z,101626.88
2023-02-16T06:28:51.810Z,101623.56
2023-02-16T06:31:18.609Z,101627.81
2023-02-16T06:33:45.477Z,101638.53
2023-02-16T06:36:12.356Z,101649.81
2023-02-16T06:38:39.100Z,101638.84
2023-02-16T06:41:06.374Z,101636.88
2023-02-16T06:43:33.398Z,101644.97
2023-02-16T06:46:00.292Z,101652.88
2023-02-16T06:48:26.920Z,101664.50
2023-02-16T06:51:11.953Z,101656.41
2023-02-16T06:53:38.601Z,101656.19
2023-02-16T06:56:05.496Z,101663.75
2023-02-16T06:58:32.156Z,101665.81
2023-02-16T07:00:58.809Z,101659.81
2023-02-16T07:03:25.529Z,101665.03
2023-02-16T07:05:52.218Z,101662.47
2023-02-16T07:08:37.207Z,101659.84
2023-02-16T07:11:22.309Z,101665.06
2023-02-16T07:13:49.162Z,101673.69
2023-02-16T07:16:34.153Z,101664.31
2023-02-16T07:19:16.417Z,101666.53
2023-02-16T07:21:43.666Z,101667.88
2023-02-16T07:24:10.440Z,101673.19
2023-02-16T07:26:38.682Z,101665.44
2023-02-16T07:29:05.356Z,101665.16
2023-02-16T07:31:32.038Z,101661.22
2023-02-16T07:33:58.784Z,101659.84
2023-02-16T07:36:25.487Z,101665.88
2023-02-16T07:38:52.112Z,101668.72
2023-02-16T07:41:18.675Z,101668.50
2023-02-16T07:43:45.252Z,101662.69
2023-02-16T07:46:11.940Z,101658.94
2023-02-16T07:48:38.786Z,101648.56
2023-02-16T07:51:06.008Z,101656.38
2023-02-16T07:53:32.925Z,101656.66
2023-02-16T07:55:59.656Z,101659.88
2023-02-16T07:58:29.267Z,101660.63
2023-02-16T08:01:16.124Z,101659.47
2023-02-16T08:03:43.145Z,101666.31
2023-02-16T08:06:09.715Z,101671.53
2023-02-16T08:08:36.655Z,101664.09
2023-02-16T08:11:18.606Z,101670.59
2023-02-16T08:13:45.398Z,101665.69
2023-02-16T08:16:18.045Z,101669.09
2023-02-16T08:19:04.422Z,101675.06
2023-02-16T08:21:33.594Z,101666.41
2023-02-16T08:24:03.566Z,101660.50
2023-02-16T08:26:40.070Z,101667.81
2023-02-16T08:29:25.781Z,101665.00
2023-02-16T08:31:53.820Z,101671.53
2023-02-16T08:34:40.413Z,101671.88
2023-02-16T08:37:26.831Z,101670.88
2023-02-16T08:39:53.902Z,101664.50
2023-02-16T08:42:21.189Z,101670.22
2023-02-16T08:44:48.144Z,101668.69
2023-02-16T08:47:16.680Z,101669.94
2023-02-16T08:49:44.444Z,101663.81
2023-02-16T08:52:12.430Z,101677.31
2023-02-16T08:54:39.809Z,101672.72
2023-02-16T08:57:06.695Z,101668.91
2023-02-16T08:59:34.805Z,101679.97
2023-02-16T09:02:01.988Z,101676.66
2023-02-16T09:04:29.160Z,101678.59
2023-02-16T09:06:56.508Z,101677.84
2023-02-16T09:09:23.409Z,101670.53
2023-02-16T09:11:50.085Z,101681.97
2023-02-16T09:14:35.368Z,101695.16
2023-02-16T09:17:02.972Z,101689.94
2023-02-16T09:19:29.716Z,101691.88
2023-02-16T09:22:15.254Z,101694.75
2023-02-16T09:24:41.886Z,101690.09
2023-02-16T09:27:09.406Z,101686.47
2023-02-16T09:29:36.004Z,101686.81
2023-02-16T09:32:02.734Z,101670.03
2023-02-16T09:34:29.800Z,101686.81
2023-02-16T09:36:56.532Z,101683.94
2023-02-16T09:39:23.173Z,101682.75
2023-02-16T09:42:01.547Z,101682.16
2023-02-16T09:44:37.437Z,101680.50
2023-02-16T09:47:15.404Z,101671.16
2023-02-16T09:49:45.009Z,101677.72
2023-02-16T09:52:27.073Z,101669.34
2023-02-16T09:55:08.031Z,101671.75
2023-02-16T09:57:55.577Z,101668.41
2023-02-16T10:00:34.534Z,101671.78
2023-02-16T10:03:19.069Z,101666.97
2023-02-16T10:05:48.677Z,101666.84
2023-02-16T10:08:24.778Z,101658.16
2023-02-16T10:11:33.291Z,101662.00
2023-02-16T10:14:07.961Z,101651.09
2023-02-16T10:16:42.697Z,101656.69
2023-02-16T10:19:22.529Z,101648.28
2023-02-16T10:21:55.840Z,101664.81
2023-02-16T10:24:25.934Z,101661.75
2023-02-16T10:27:02.517Z,101657.78
2023-02-16T10:29:29.440Z,101667.16
2023-02-16T10:32:12.847Z,101659.00
2023-02-16T10:35:21.804Z,101650.34
2023-02-16T10:38:08.410Z,101661.13
2023-02-16T10:41:27.942Z,101649.66
2023-02-16T10:44:04.716Z,101642.97
2023-02-16T10:46:57.036Z,101648.34
2023-02-16T10:49:43.164Z,101642.41
2023-02-16T10:52:11.542Z,101644.97
2023-02-16T10:54:56.782Z,101630.59
2023-02-16T10:57:30.917Z,101634.41
2023-02-16T11:00:01.600Z,101621.44
2023-02-16T11:02:51.301Z,101618.28
2023-02-16T11:05:31.132Z,101622.75
2023-02-16T11:08:01.757Z,101618.97
2023-02-16T11:10:46.955Z,101613.84
2023-02-16T11:13:34.611Z,101601.03
2023-02-16T11:16:09.612Z,101607.00
2023-02-16T11:18:40.102Z,101603.56
2023-02-16T11:21:08.661Z,101605.84
2023-02-16T11:24:02.104Z,101598.63
2023-02-16T11:26:28.886Z,101591.59
2023-02-16T11:29:13.294Z,101585.31
2023-02-16T11:31:59.987Z,101568.56
2023-02-16T11:34:34.662Z,101574.66
2023-02-16T11:37:05.391Z,101563.94
2023-02-16T11:39:37.471Z,101564.06
2023-02-16T11:42:09.011Z,101563.94
2023-02-16T11:44:41.239Z,101556.81
2023-02-16T11:47:23.049Z,101554.25
2023-02-16T11:50:04.701Z,101537.41
2023-02-16T11:52:32.581Z,101543.56
2023-02-16T11:55:01.992Z,101539.50
2023-02-16T11:57:35.809Z,101540.47
2023-02-16T12:00:14.355Z,101541.06
2023-02-16T12:03:02.910Z,101534.16
2023-02-16T12:06:08.285Z,101531.28
2023-02-16T12:08:54.680Z,101537.53
2023-02-16T12:11:44.074Z,101535.81
2023-02-16T12:14:32.267Z,101527.22
2023-02-16T12:17:18.899Z,101528.91
2023-02-16T12:19:48.337Z,101530.16
2023-02-16T12:22:14.931Z,101528.09
2023-02-16T12:25:15.741Z,101520.69
2023-02-16T12:28:13.399Z,101512.00
2023-02-16T12:31:22.164Z,101506.44
2023-02-16T12:34:23.641Z,101514.69
2023-02-16T12:37:00.311Z,101504.63
2023-02-16T12:39:39.529Z,101502.78
2023-02-16T12:42:42.680Z,101492.09
2023-02-16T12:45:14.121Z,101499.09
2023-02-16T12:47:52.383Z,101495.63
2023-02-16T12:50:27.136Z,101493.56
2023-02-16T12:52:53.952Z,101484.06
2023-02-16T12:55:42.110Z,101487.56
2023-02-16T12:58:14.880Z,101487.75
2023-02-16T13:00:52.490Z,101466.31
2023-02-16T13:03:19.713Z,101477.44
2023-02-16T13:05:54.258Z,101467.53
2023-02-16T13:08:42.950Z,101462.97
2023-02-16T13:11:28.322Z,101456.56
2023-02-16T13:14:01.434Z,101449.53
2023-02-16T13:16:39.409Z,101452.84
2023-02-16T13:19:06.074Z,101448.50
2023-02-16T13:22:01.533Z,101446.84
2023-02-16T13:24:46.379Z,101452.00
2023-02-16T13:27:37.248Z,101437.97
2023-02-16T13:30:40.140Z,101431.59
2023-02-16T13:33:18.111Z,101438.63
2023-02-16T13:36:02.718Z,101438.78
2023-02-16T13:38:40.834Z,101436.72
2023-02-16T13:41:41.606Z,101430.97
2023-02-16T13:44:19.120Z,101423.25
2023-02-16T13:46:52.750Z,101419.16
2023-02-16T13:49:40.329Z,101418.72
2023-02-16T13:52:08.734Z,101410.63
2023-02-16T13:54:43.778Z,101405.88
2023-02-16T13:57:34.829Z,101398.75
2023-02-16T14:00:05.827Z,101396.81
2023-02-16T14:02:59.207Z,101401.13
2023-02-16T14:05:35.416Z,101395.53
2023-02-16T14:08:23.805Z,101395.59
2023-02-16T14:10:53.336Z,101403.50
2023-02-16T14:13:38.702Z,101392.16
2023-02-16T14:16:17.313Z,101391.88
2023-02-16T14:18:45.921Z,101389.66
2023-02-16T14:21:28.518Z,101378.53
2023-02-16T14:23:57.213Z,101389.38
2023-02-16T14:26:24.752Z,101382.03
2023-02-16T14:29:21.002Z,101377.19
2023-02-16T14:31:56.983Z,101378.06
2023-02-16T14:34:29.240Z,101383.56
2023-02-16T14:37:28.582Z,101373.44
2023-02-16T14:40:08.960Z,101378.22
2023-02-16T14:42:36.081Z,101378.06
2023-02-16T14:45:22.998Z,101387.63
2023-02-16T14:48:13.379Z,101379.94
2023-02-16T14:51:00.131Z,101383.00
2023-02-16T14:53:29.504Z,101382.34
2023-02-16T14:56:13.485Z,101377.47
2023-02-16T14:59:02.373Z,101377.47
2023-02-16T15:01:29.136Z,101371.50
2023-02-16T15:03:57.985Z,101371.88
2023-02-16T15:06:36.379Z,101370.78
2023-02-16T15:09:13.302Z,101370.72
2023-02-16T15:12:09.464Z,101376.56
2023-02-16T15:14:42.963Z,101373.34
2023-02-16T15:17:10.266Z,101384.19
2023-02-16T15:19:37.367Z,101374.59
2023-02-16T15:22:13.203Z,101374.44
2023-02-16T15:24:41.250Z,101384.41
2023-02-16T15:27:20.956Z,101373.78
2023-02-16T15:30:20.353Z,101377.47
2023-02-16T15:32:59.351Z,101378.69
2023-02-16T15:35:29.752Z,101373.66
2023-02-16T15:38:12.798Z,101370.13
2023-02-16T15:40:40.059Z,101372.91
2023-02-16T15:43:33.978Z,101378.06
2023-02-16T15:46:03.315Z,101371.22
2023-02-16T15:48:36.643Z,101371.59
2023-02-16T15:51:20.860Z,101366.00
2023-02-16T15:54:04.366Z,101363.00
2023-02-16T15:56:44.795Z,101366.97
2023-02-16T15:59:32.477Z,101366.13
2023-02-16T16:02:03.743Z,101354.91
2023-02-16T16:04:32.099Z,101364.25
2023-02-16T16:07:00.045Z,101363.22
2023-02-16T16:09:30.024Z,101351.56
2023-02-16T16:12:03.929Z,101352.78
2023-02-16T16:14:34.838Z,101359.38
2023-02-16T16:17:03.229Z,101358.09
2023-02-16T16:19:38.320Z,101364.91
2023-02-16T16:22:29.653Z,101362.94
2023-02-16T16:24:56.473Z,101354.78
2023-02-16T16:27:33.213Z,101357.81
2023-02-16T16:30:28.656Z,101362.13
2023-02-16T16:33:03.486Z,101365.50
2023-02-16T16:35:47.450Z,101363.88
2023-02-16T16:38:26.241Z,101376.56
2023-02-16T16:40:58.965Z,101378.81
2023-02-16T16:43:51.843Z,101390.13
2023-02-16T16:46:25.927Z,101392.44
2023-02-16T16:48:56.608Z,101390.16
2023-02-16T16:51:31.164Z,101390.16
2023-02-16T16:54:00.746Z,101385.41
2023-02-16T16:56:29.736Z,101381.09
2023-02-16T16:58:58.524Z,101381.34
2023-02-16T17:01:29.309Z,101383.44
2023-02-16T17:03:56.506Z,101385.34
2023-02-16T17:06:24.130Z,101386.97
2023-02-16T17:08:51.031Z,101384.28
2023-02-16T17:11:33.285Z,101386.59
2023-02-16T17:14:14.277Z,101390.31
2023-02-16T17:16:44.331Z,101392.78
2023-02-16T17:19:16.968Z,101396.38
2023-02-16T17:21:44.768Z,101394.63
2023-02-16T17:24:12.900Z,101384.91
2023-02-16T17:26:39.811Z,101392.56
2023-02-16T17:29:07.157Z,101389.31
2023-02-16T17:31:34.358Z,101376.97
2023-02-16T17:34:01.358Z,101375.19
2023-02-16T17:36:28.777Z,101375.41
2023-02-16T17:38:55.507Z,101374.38
2023-02-16T17:41:25.290Z,101376.88
2023-02-16T17:43:52.264Z,101387.00
2023-02-16T17:46:20.235Z,101382.25
2023-02-16T17:48:53.374Z,101383.28
2023-02-16T17:51:22.942Z,101389.50
2023-02-16T17:53:49.919Z,101391.78
2023-02-16T17:56:19.922Z,101390.75
2023-02-16T17:58:46.531Z,101394.47
2023-02-16T18:01:15.258Z,101389.91
2023-02-16T18:03:42.183Z,101390.31
2023-02-16T18:06:18.438Z,101398.56
2023-02-16T18:08:46.243Z,101388.44
2023-02-16T18:11:13.209Z,101400.66
2023-02-16T18:13:40.077Z,101392.59
2023-02-16T18:16:08.168Z,101398.16
2023-02-16T18:18:39.017Z,101380.81
2023-02-16T18:21:06.060Z,101385.38
2023-02-16T18:23:33.036Z,101381.81
2023-02-16T18:25:59.860Z,101388.22
2023-02-16T18:28:30.707Z,101380.78
2023-02-16T18:30:58.185Z,101379.13
2023-02-16T18:33:25.493Z,101383.25
2023-02-16T18:35:54.488Z,101384.03
2023-02-16T18:38:22.503Z,101381.56
2023-02-16T18:40:51.519Z,101374.25
2023-02-16T18:43:18.254Z,101382.56
2023-02-16T18:45:44.835Z,101379.88
2023-02-16T18:48:11.521Z,101382.78
2023-02-16T18:50:38.698Z,101375.75
2023-02-16T18:53:06.185Z,101378.66
2023-02-16T18:55:33.323Z,101376.19
2023-02-16T18:58:01.385Z,101370.22
2023-02-16T19:00:28.159Z,101372.28
2023-02-16T19:02:55.891Z,101363.00
2023-02-16T19:05:23.383Z,101365.06
2023-02-16T19:07:50.838Z,101366.06
2023-02-16T19:10:18.838Z,101373.25
2023-02-16T19:12:45.449Z,101374.88
2023-02-16T19:15:12.188Z,101386.53
2023-02-16T19:17:39.109Z,101382.34
2023-02-16T19:20:14.453Z,101379.84
2023-02-16T19:22:41.327Z,101384.41
2023-02-16T19:25:08.163Z,101388.31
2023-02-16T19:27:35.150Z,101393.06
2023-02-16T19:30:01.785Z,101391.63
2023-02-16T19:32:30.969Z,101391.44
2023-02-16T19:34:57.635Z,101386.50
2023-02-16T19:37:24.472Z,101385.84
2023-02-16T19:39:51.247Z,101388.31
2023-02-16T19:42:17.878Z,101389.78
2023-02-16T19:44:44.473Z,101394.13
2023-02-16T19:47:11.153Z,101388.53
2023-02-16T19:49:38.202Z,101390.44
2023-02-16T19:52:05.244Z,101400.34
2023-02-16T19:54:34.837Z,101403.47
2023-02-16T19:57:03.143Z,101400.97
2023-02-16T19:59:31.414Z,101400.34
2023-02-16T20:01:58.982Z,101399.97
2023-02-16T20:04:25.941Z,101412.13
2023-02-16T20:06:54.341Z,101418.53
2023-02-16T20:09:21.898Z,101411.31
2023-02-16T20:11:49.564Z,101413.19
2023-02-16T20:14:16.542Z,101408.19
2023-02-16T20:16:43.420Z,101411.31
2023-02-16T20:19:10.736Z,101407.59
2023-02-16T20:21:37.730Z,101403.25
2023-02-16T20:24:05.652Z,101399.72
2023-02-16T20:26:52.001Z,101400.91
2023-02-16T20:29:20.558Z,101383.59
2023-02-16T20:31:52.943Z,101384.78
2023-02-16T20:34:20.012Z,101387.25
2023-02-16T20:36:46.706Z,101390.97
2023-02-16T20:39:13.443Z,101384.53
2023-02-16T20:41:40.895Z,101382.31
2023-02-16T20:44:08.339Z,101388.53
2023-02-16T20:46:35.085Z,101384.41
2023-02-16T20:49:04.423Z,101389.13
2023-02-16T20:51:31.635Z,101381.28
2023-02-16T20:54:00.365Z,101379.03
2023-02-16T20:56:28.310Z,101382.09
2023-02-16T20:58:56.833Z,101381.69
2023-02-16T21:01:30.636Z,101386.03
2023-02-16T21:03:58.583Z,101383.13
2023-02-16T21:06:25.749Z,101375.91
2023-02-16T21:08:52.567Z,101368.88
2023-02-16T21:11:19.528Z,101375.28
2023-02-16T21:13:46.407Z,101371.34
2023-02-16T21:16:14.146Z,101366.28
2023-02-16T21:18:41.188Z,101367.38
2023-02-16T21:21:14.988Z,101369.25
2023-02-16T21:23:47.959Z,101360.38
2023-02-16T21:26:15.874Z,101357.44
2023-02-16T21:28:42.672Z,101355.31
2023-02-16T21:31:15.536Z,101351.06
2023-02-16T21:33:42.629Z,101348.06
2023-02-16T21:36:12.432Z,101344.25
2023-02-16T21:38:40.240Z,101348.19
2023-02-16T21:41:24.784Z,101348.66
2023-02-16T21:44:02.205Z,101344.09
2023-02-16T21:46:37.756Z,101339.78
2023-02-16T21:49:07.289Z,101340.28
2023-02-16T21:51:36.846Z,101344.72
2023-02-16T21:54:06.508Z,101341.19
2023-02-16T21:56:45.234Z,101337.97
2023-02-16T21:59:15.259Z,101339.63
2023-02-16T22:01:48.312Z,101339.97
2023-02-16T22:04:18.014Z,101335.09
2023-02-16T22:06:46.872Z,101338.50
2023-02-16T22:09:22.852Z,101338.44
2023-02-16T22:11:53.154Z,101328.84
2023-02-16T22:14:19.904Z,101322.09
2023-02-16T22:16:48.173Z,101309.50
2023-02-16T22:19:17.670Z,101314.13
2023-02-16T22:21:45.856Z,101298.94
2023-02-16T22:24:14.741Z,101308.94
2023-02-16T22:26:42.424Z,101301.22
2023-02-16T22:29:09.650Z,101303.28
2023-02-16T22:31:37.183Z,101306.81
2023-02-16T22:34:11.661Z,101300.66
2023-02-16T22:36:40.029Z,101309.31
2023-02-16T22:39:07.430Z,101310.09
2023-02-16T22:41:34.973Z,101309.06
2023-02-16T22:44:01.563Z,101305.09
2023-02-16T22:46:29.501Z,101306.28
2023-02-16T22:49:00.893Z,101302.25
2023-02-16T22:51:29.233Z,101294.91
2023-02-16T22:53:58.697Z,101308.22
2023-02-16T22:56:26.853Z,101305.28
2023-02-16T22:58:57.394Z,101311.19
2023-02-16T23:01:25.495Z,101317.69
2023-02-16T23:03:56.508Z,101319.03
2023-02-16T23:06:29.190Z,101327.16
2023-02-16T23:09:05.136Z,101323.22
2023-02-16T23:11:32.777Z,101328.59
2023-02-16T23:13:59.428Z,101323.75
2023-02-16T23:16:27.324Z,101315.44
2023-02-16T23:18:58.916Z,101328.06
2023-02-16T23:21:28.931Z,101325.38
2023-02-16T23:23:56.238Z,101320.69
2023-02-16T23:26:25.875Z,101318.72
2023-02-16T23:28:54.571Z,101321.56
2023-02-16T23:31:21.727Z,101311.28
2023-02-16T23:33:49.738Z,101312.31
2023-02-16T23:36:16.636Z,101314.94
2023-02-16T23:38:43.486Z,101310.13
2023-02-16T23:41:13.250Z,101317.13
2023-02-16T23:43:40.304Z,101310.19
2023-02-16T23:46:07.667Z,101312.91
2023-02-16T23:48:34.491Z,101310.56
2023-02-16T23:51:01.102Z,101304.75
2023-02-16T23:53:28.755Z,101305.34
2023-02-16T23:56:11.544Z,101302.66
2023-02-16T23:58:44.980Z,101302.78
